This is the latest recevied weather packets stored in our database for station/object ALAKES. If no packets are shown the sender has not sent any weather packets the latest 10 day(s).
| Time | Temp. | Humidity | Pressure | Rain* | Wind** | Luminosity | Snow |
|---|---|---|---|---|---|---|---|
| 1787877493 | 15.56° C | 51% | - | 0 mm | - | - | - |
| 1787876908 | 16.67° C | 44% | - | 0 mm | - | - | - |
| 1787876861 | 16.67° C | 44% | - | 0 mm | - | - | - |
| 1787876229 | 16.67° C | 39% | - | 0 mm | - | - | - |
| 1787875597 | 16.67° C | 39% | - | 0 mm | - | - | - |
| 1787874957 | 16.67° C | 37% | - | 0 mm | - | - | - |
| 1787874409 | 17.22° C | 36% | - | 0 mm | - | - | - |
| 1787874328 | 17.22° C | 36% | - | 0 mm | - | - | - |
| 1787873690 | 17.22° C | 36% | - | 0 mm | - | - | - |
| 1787873056 | 17.22° C | 31% | - | 0 mm | - | - | - |
| 1787872426 | 18.33° C | 24% | - | 0 mm | - | - | - |
| 1787871796 | 18.89° C | 22% | - | 0 mm | - | - | - |
| 1787871156 | 18.33° C | 22% | - | 0 mm | - | - | - |
| 1787870512 | 18.89° C | 21% | - | 0 mm | - | - | - |
| 1787869882 | 18.33° C | 21% | - | 0 mm | - | - | - |
| 1787869246 | 18.33° C | 22% | - | 0 mm | - | - | - |
| 1787868614 | 18.33° C | 24% | - | 0 mm | - | - | - |
| 1787867986 | 18.33° C | 20% | - | 0 mm | - | - | - |
| 1787867350 | 17.78° C | 26% | - | 0 mm | - | - | - |
| 1787866726 | 17.22° C | 26% | - | 0 mm | - | - | - |
| 1787866103 | 17.22° C | 28% | - | 0 mm | - | - | - |
| 1787865459 | 17.78° C | 28% | - | 0 mm | - | - | - |
| 1787864831 | 17.22° C | 28% | - | 0 mm | - | - | - |
| 1787864197 | 17.22° C | 29% | - | 0 mm | - | - | - |
| 1787863571 | 17.78° C | 28% | - | 0 mm | - | - | - |
* Rain latest 24 hours (hover to see other rain measurements)
** Current wind speed in m/s (hover to see current wind gust speed)